createdAt,value
2017-12-10T00:02:25.155Z,97.10
2017-12-10T00:05:34.946Z,97.30
2017-12-10T00:08:44.803Z,97.50
2017-12-10T00:11:55.247Z,97.50
2017-12-10T00:15:04.676Z,97.30
2017-12-10T00:18:14.705Z,97.40
2017-12-10T00:21:24.963Z,97.40
2017-12-10T00:24:35.058Z,97.00
2017-12-10T00:27:45.213Z,96.90
2017-12-10T00:30:55.167Z,97.00
2017-12-10T00:34:05.178Z,96.80
2017-12-10T00:37:14.896Z,96.70
2017-12-10T00:40:24.683Z,96.40
2017-12-10T00:43:34.999Z,96.50
2017-12-10T00:46:45.243Z,97.00
2017-12-10T00:49:55.234Z,96.90
2017-12-10T00:53:05.746Z,95.90
2017-12-10T00:56:15.894Z,96.00
2017-12-10T00:59:25.331Z,96.10
2017-12-10T01:02:35.880Z,96.60
2017-12-10T01:05:45.800Z,96.60
2017-12-10T01:08:55.245Z,96.20
2017-12-10T01:12:05.319Z,96.10
2017-12-10T01:15:15.326Z,95.90
2017-12-10T01:18:25.700Z,96.00
2017-12-10T01:21:36.780Z,95.80
2017-12-10T01:24:47.169Z,95.70
2017-12-10T01:27:58.581Z,96.00
2017-12-10T01:31:09.306Z,96.20
2017-12-10T01:34:19.972Z,96.10
2017-12-10T01:37:30.191Z,96.00
2017-12-10T01:40:40.431Z,96.00
2017-12-10T01:43:50.214Z,96.30
2017-12-10T01:46:59.944Z,95.70
2017-12-10T01:50:09.747Z,95.90
2017-12-10T01:53:20.441Z,96.20
2017-12-10T01:56:30.339Z,96.20
2017-12-10T01:59:40.142Z,96.10
2017-12-10T02:02:50.696Z,95.80
2017-12-10T02:06:00.547Z,95.70
2017-12-10T02:09:10.588Z,96.00
2017-12-10T02:12:21.124Z,96.30
2017-12-10T02:15:30.977Z,96.30
2017-12-10T02:18:41.371Z,96.10
2017-12-10T02:21:51.294Z,96.10
2017-12-10T02:25:02.499Z,96.10
2017-12-10T02:28:11.845Z,96.10
2017-12-10T02:31:21.654Z,96.60
2017-12-10T02:34:32.413Z,96.20
2017-12-10T02:37:43.073Z,96.00
2017-12-10T02:40:53.197Z,96.00
2017-12-10T02:44:02.919Z,95.90
2017-12-10T02:47:12.715Z,95.90
2017-12-10T02:50:23.188Z,96.50
2017-12-10T02:53:33.149Z,96.50
2017-12-10T02:56:43.686Z,96.50
2017-12-10T02:59:54.479Z,96.30
2017-12-10T03:03:04.301Z,96.20
2017-12-10T03:06:13.759Z,96.50
2017-12-10T03:09:23.662Z,96.50
2017-12-10T03:12:33.325Z,96.80
2017-12-10T03:15:42.842Z,96.70
2017-12-10T03:18:52.619Z,96.90
2017-12-10T03:22:02.981Z,96.80
2017-12-10T03:25:13.593Z,96.50
2017-12-10T03:28:24.158Z,96.60
2017-12-10T03:31:33.979Z,96.60
2017-12-10T03:34:43.607Z,96.90
2017-12-10T03:37:53.635Z,96.50
2017-12-10T03:41:03.692Z,96.60
2017-12-10T03:44:13.581Z,96.60
2017-12-10T03:47:23.562Z,96.10
2017-12-10T03:50:33.473Z,96.30
2017-12-10T03:53:43.186Z,96.10
2017-12-10T03:56:53.124Z,96.40
2017-12-10T04:00:04.214Z,96.40
2017-12-10T04:03:14.407Z,96.50
2017-12-10T04:06:24.535Z,96.40
2017-12-10T04:09:34.820Z,96.30
2017-12-10T04:12:45.474Z,95.60
2017-12-10T04:15:55.402Z,95.60
2017-12-10T04:19:04.906Z,95.80
2017-12-10T04:22:15.502Z,95.80
2017-12-10T04:25:25.656Z,95.70
2017-12-10T04:28:35.449Z,95.40
2017-12-10T04:31:45.181Z,95.30
2017-12-10T04:34:55.019Z,95.70
2017-12-10T04:38:04.741Z,95.40
2017-12-10T04:41:14.565Z,95.60
2017-12-10T04:44:24.986Z,95.20
2017-12-10T04:47:35.020Z,95.20
2017-12-10T04:50:44.735Z,95.30
2017-12-10T04:53:55.404Z,95.30
2017-12-10T04:57:06.482Z,95.20
2017-12-10T05:00:16.716Z,95.10
2017-12-10T05:03:26.328Z,95.00
2017-12-10T05:06:36.175Z,95.50
2017-12-10T05:09:45.911Z,95.00
2017-12-10T05:12:56.703Z,95.10
2017-12-10T05:16:07.752Z,94.90
2017-12-10T05:19:18.123Z,94.90
2017-12-10T05:22:27.702Z,94.90
2017-12-10T05:25:37.385Z,94.90
2017-12-10T05:28:47.998Z,94.40
2017-12-10T05:31:58.211Z,94.40
2017-12-10T05:35:08.268Z,94.40
2017-12-10T05:38:18.585Z,94.10
2017-12-10T05:41:28.592Z,94.10
2017-12-10T05:44:39.040Z,94.30
2017-12-10T05:47:48.875Z,94.30
2017-12-10T05:50:58.483Z,94.40
2017-12-10T05:54:08.322Z,94.70
2017-12-10T05:57:18.136Z,94.20
2017-12-10T06:00:28.052Z,94.10
2017-12-10T06:03:39.166Z,93.80
2017-12-10T06:06:49.768Z,93.90
2017-12-10T06:10:00.032Z,93.90
2017-12-10T06:13:09.494Z,93.80
2017-12-10T06:16:19.532Z,93.90
2017-12-10T06:19:29.001Z,94.50
2017-12-10T06:22:38.726Z,94.50
2017-12-10T06:25:48.484Z,94.10
2017-12-10T06:28:58.571Z,94.30
2017-12-10T06:32:08.940Z,94.20
2017-12-10T06:35:18.871Z,94.10
2017-12-10T06:38:28.516Z,93.90
2017-12-10T06:41:38.560Z,93.60
2017-12-10T06:44:47.958Z,94.10
2017-12-10T06:47:57.952Z,94.30
2017-12-10T06:51:07.862Z,94.00
2017-12-10T06:54:17.531Z,94.30
2017-12-10T06:57:27.408Z,94.20
2017-12-10T07:00:37.910Z,94.10
2017-12-10T07:03:47.878Z,94.10
2017-12-10T07:06:57.486Z,94.50
2017-12-10T07:10:07.566Z,95.00
2017-12-10T07:13:17.379Z,94.50
2017-12-10T07:16:27.934Z,94.50
2017-12-10T07:19:38.062Z,94.40
2017-12-10T07:22:48.738Z,94.40
2017-12-10T07:25:59.873Z,94.40
2017-12-10T07:29:09.715Z,94.30
2017-12-10T07:32:21.023Z,94.30
2017-12-10T07:35:31.785Z,94.90
2017-12-10T07:38:42.532Z,94.20
2017-12-10T07:41:53.813Z,94.20
2017-12-10T07:45:04.293Z,94.20
2017-12-10T07:48:14.248Z,94.50
2017-12-10T07:51:24.803Z,94.00
2017-12-10T07:54:34.998Z,94.00
2017-12-10T07:57:44.505Z,93.80
2017-12-10T08:00:54.233Z,93.50
2017-12-10T08:04:04.951Z,93.80
2017-12-10T08:07:14.381Z,93.80
2017-12-10T08:10:24.186Z,93.90
2017-12-10T08:13:34.053Z,93.80
2017-12-10T08:16:44.560Z,94.00
2017-12-10T08:19:54.258Z,93.50
2017-12-10T08:23:04.357Z,93.90
2017-12-10T08:26:14.728Z,93.30
2017-12-10T08:29:25.918Z,93.20
2017-12-10T08:32:36.318Z,93.20
2017-12-10T08:35:46.691Z,93.30
2017-12-10T08:38:58.487Z,93.20
2017-12-10T08:42:08.586Z,92.70
2017-12-10T08:45:18.730Z,93.00
2017-12-10T08:48:29.558Z,92.50
2017-12-10T08:51:39.416Z,92.50
2017-12-10T08:54:49.323Z,92.40
2017-12-10T08:57:59.252Z,92.50
2017-12-10T09:01:08.924Z,92.10
2017-12-10T09:04:18.755Z,92.30
2017-12-10T09:07:29.558Z,92.50
2017-12-10T09:10:40.548Z,91.80
2017-12-10T09:13:52.497Z,92.30
2017-12-10T09:17:02.976Z,92.30
2017-12-10T09:20:13.646Z,92.20
2017-12-10T09:23:24.115Z,92.00
2017-12-10T09:26:34.789Z,91.80
2017-12-10T09:29:45.715Z,92.40
2017-12-10T09:32:55.746Z,92.20
2017-12-10T09:36:05.450Z,91.60
2017-12-10T09:39:15.135Z,91.50
2017-12-10T09:42:25.412Z,91.50
2017-12-10T09:45:35.072Z,91.30
2017-12-10T09:48:44.756Z,91.80
2017-12-10T09:51:54.491Z,92.10
2017-12-10T09:55:04.355Z,91.70
2017-12-10T09:58:14.731Z,92.00
2017-12-10T10:01:25.122Z,91.90
2017-12-10T10:04:35.409Z,91.90
2017-12-10T10:07:46.080Z,92.20
2017-12-10T10:10:56.265Z,92.20
2017-12-10T10:14:05.856Z,91.70
2017-12-10T10:17:15.678Z,92.30
2017-12-10T10:20:26.831Z,91.80
2017-12-10T10:23:37.812Z,92.00
2017-12-10T10:26:48.358Z,92.00
2017-12-10T10:29:57.851Z,91.70
2017-12-10T10:33:09.025Z,91.30
2017-12-10T10:36:18.489Z,91.30
2017-12-10T10:39:27.984Z,91.10
2017-12-10T10:42:38.804Z,90.90
2017-12-10T10:45:49.514Z,90.90
2017-12-10T10:48:58.950Z,91.00
2017-12-10T10:52:09.033Z,90.20
2017-12-10T10:55:19.318Z,90.30
2017-12-10T10:58:28.714Z,90.00
2017-12-10T11:01:38.927Z,90.80
2017-12-10T11:04:49.123Z,90.60
2017-12-10T11:07:59.287Z,90.60
2017-12-10T11:11:09.965Z,90.80
2017-12-10T11:14:20.191Z,90.70
2017-12-10T11:17:29.720Z,90.70
2017-12-10T11:20:40.094Z,91.10
2017-12-10T11:23:49.652Z,91.00
2017-12-10T11:27:01.616Z,92.00
2017-12-10T11:30:13.117Z,91.20
2017-12-10T11:33:23.478Z,91.20
2017-12-10T11:36:33.757Z,91.50
2017-12-10T11:39:43.883Z,91.50
2017-12-10T11:42:53.240Z,91.00
2017-12-10T11:46:03.385Z,91.20
2017-12-10T11:49:13.739Z,91.20
2017-12-10T11:52:23.647Z,91.00
2017-12-10T11:55:34.010Z,91.80
2017-12-10T11:58:43.890Z,91.70
2017-12-10T12:01:54.116Z,91.70
2017-12-10T12:05:03.852Z,91.90
2017-12-10T12:08:14.850Z,91.30
2017-12-10T12:11:25.059Z,91.70
2017-12-10T12:14:35.479Z,91.70
2017-12-10T12:17:45.322Z,91.70
2017-12-10T12:20:55.222Z,91.70
2017-12-10T12:24:05.718Z,92.10
2017-12-10T12:27:15.223Z,91.90
2017-12-10T12:30:26.029Z,92.00
2017-12-10T12:33:36.263Z,92.20
2017-12-10T12:36:47.224Z,92.10
2017-12-10T12:39:57.380Z,92.10
2017-12-10T12:43:06.992Z,92.40
2017-12-10T12:46:19.025Z,92.00
2017-12-10T12:49:28.893Z,92.00
2017-12-10T12:52:38.983Z,92.00
2017-12-10T12:55:49.459Z,91.80
2017-12-10T12:59:00.500Z,91.10
2017-12-10T13:02:10.782Z,91.20
2017-12-10T13:05:21.631Z,91.40
2017-12-10T13:08:31.647Z,91.40
2017-12-10T13:11:41.363Z,91.40
2017-12-10T13:14:52.153Z,90.90
2017-12-10T13:18:05.012Z,90.80
2017-12-10T13:21:15.219Z,91.20
2017-12-10T13:24:25.100Z,90.70
2017-12-10T13:27:35.206Z,89.50
2017-12-10T13:30:45.140Z,90.40
2017-12-10T13:33:55.865Z,90.80
2017-12-10T13:37:05.753Z,90.80
2017-12-10T13:40:15.526Z,90.60
2017-12-10T13:43:25.306Z,91.10
2017-12-10T13:46:35.449Z,91.50
2017-12-10T13:49:45.242Z,90.70
2017-12-10T13:52:54.662Z,91.00
2017-12-10T13:56:04.429Z,91.80
2017-12-10T13:59:14.379Z,93.00
2017-12-10T14:02:25.474Z,95.00
2017-12-10T14:05:35.197Z,95.00
2017-12-10T14:08:45.808Z,95.30
2017-12-10T14:11:55.558Z,95.60
2017-12-10T14:15:05.188Z,95.50
2017-12-10T14:18:15.179Z,95.60
2017-12-10T14:21:24.818Z,95.60
2017-12-10T14:24:34.896Z,95.40
2017-12-10T14:27:51.701Z,96.00
2017-12-10T14:31:02.630Z,95.80
2017-12-10T14:34:13.109Z,96.30
2017-12-10T14:37:24.694Z,95.80
2017-12-10T14:40:34.467Z,95.80
2017-12-10T14:43:45.910Z,95.80
2017-12-10T14:46:56.472Z,95.50
2017-12-10T14:50:06.762Z,95.50
2017-12-10T14:53:16.193Z,95.80
2017-12-10T14:56:25.952Z,95.50
2017-12-10T14:59:35.901Z,95.00
2017-12-10T15:02:45.759Z,95.10
2017-12-10T15:05:55.462Z,95.10
2017-12-10T15:09:04.810Z,95.30
2017-12-10T15:12:15.126Z,95.30
2017-12-10T15:15:24.656Z,95.90
2017-12-10T15:18:35.672Z,95.20
2017-12-10T15:21:45.434Z,95.10
2017-12-10T15:24:56.522Z,95.20
2017-12-10T15:28:07.128Z,95.60
2017-12-10T15:31:17.040Z,95.50
2017-12-10T15:34:27.833Z,95.30
2017-12-10T15:37:38.460Z,95.10
2017-12-10T15:40:49.167Z,95.20
2017-12-10T15:47:17.394Z,95.10
2017-12-10T15:50:27.453Z,95.10
2017-12-10T15:53:37.105Z,94.80
2017-12-10T15:56:47.491Z,95.00
2017-12-10T15:59:57.500Z,95.10
2017-12-10T16:03:07.871Z,94.70
2017-12-10T16:06:17.854Z,94.50
2017-12-10T16:09:28.233Z,94.80
2017-12-10T16:12:37.597Z,94.80
2017-12-10T16:15:47.345Z,95.20
2017-12-10T16:19:05.625Z,95.10
2017-12-10T16:22:16.166Z,95.10
2017-12-10T16:25:25.794Z,95.10
2017-12-10T16:28:35.676Z,95.20
2017-12-10T16:31:45.759Z,94.80
2017-12-10T16:34:56.540Z,95.20
2017-12-10T16:38:06.602Z,95.20
2017-12-10T16:41:16.542Z,94.80
2017-12-10T16:44:26.200Z,95.10
2017-12-10T16:47:36.078Z,95.00
2017-12-10T16:50:45.689Z,95.20
2017-12-10T16:53:55.940Z,95.10
2017-12-10T16:57:05.838Z,95.30
2017-12-10T17:00:15.892Z,95.10
2017-12-10T17:03:25.391Z,95.40
2017-12-10T17:06:35.071Z,95.40
2017-12-10T17:09:45.042Z,95.40
2017-12-10T17:12:55.398Z,95.30
2017-12-10T17:16:05.640Z,95.20
2017-12-10T17:19:15.835Z,95.10
2017-12-10T17:22:26.007Z,95.50
2017-12-10T17:25:35.987Z,95.90
2017-12-10T17:28:46.470Z,96.40
2017-12-10T17:31:57.684Z,96.20
2017-12-10T17:35:07.888Z,96.20
2017-12-10T17:38:17.839Z,96.40
2017-12-10T17:41:27.720Z,96.50
2017-12-10T17:44:37.411Z,96.70
2017-12-10T17:47:47.901Z,97.10
2017-12-10T17:50:59.591Z,97.20
2017-12-10T17:54:09.301Z,97.20
2017-12-10T17:57:19.275Z,97.10
2017-12-10T18:00:28.708Z,97.10
2017-12-10T18:03:39.020Z,97.40
2017-12-10T18:06:48.866Z,97.60
2017-12-10T18:09:59.105Z,98.00
2017-12-10T18:13:09.105Z,98.20
2017-12-10T18:16:19.387Z,98.30
2017-12-10T18:19:29.552Z,98.30
2017-12-10T18:22:39.893Z,98.10
2017-12-10T18:25:50.861Z,98.90
2017-12-10T18:29:01.948Z,99.80
2017-12-10T18:32:11.879Z,99.80
2017-12-10T18:35:21.941Z,99.70
2017-12-10T18:38:32.363Z,99.90
2017-12-10T18:41:42.277Z,99.90
2017-12-10T18:44:51.980Z,99.90
2017-12-10T18:48:01.953Z,99.90
2017-12-10T18:51:11.885Z,99.90
2017-12-10T18:54:22.255Z,99.90
2017-12-10T18:57:31.720Z,99.90
2017-12-10T19:00:41.195Z,99.90
2017-12-10T19:03:51.319Z,99.90
2017-12-10T19:07:00.962Z,99.90
2017-12-10T19:10:10.843Z,99.90
2017-12-10T19:13:20.585Z,99.90
2017-12-10T19:16:34.596Z,99.90
2017-12-10T19:19:45.176Z,99.90
2017-12-10T19:22:55.398Z,99.90
2017-12-10T19:26:05.130Z,99.90
2017-12-10T19:29:15.030Z,99.90
2017-12-10T19:32:25.324Z,99.90
2017-12-10T19:35:35.287Z,99.90
2017-12-10T19:38:44.909Z,99.90
2017-12-10T19:41:54.782Z,99.90
2017-12-10T19:45:05.484Z,99.90
2017-12-10T19:48:15.931Z,99.90
2017-12-10T19:51:25.988Z,99.90
2017-12-10T19:54:36.102Z,99.90
2017-12-10T19:57:45.718Z,99.90
2017-12-10T20:00:55.697Z,99.90
2017-12-10T20:04:07.388Z,99.90
2017-12-10T20:07:18.316Z,99.90
2017-12-10T20:10:28.460Z,99.90
2017-12-10T20:13:38.231Z,99.90
2017-12-10T20:16:48.760Z,99.90
2017-12-10T20:19:58.757Z,99.90
2017-12-10T20:23:08.772Z,99.90
2017-12-10T20:26:19.005Z,99.90
2017-12-10T20:29:29.425Z,99.90
2017-12-10T20:32:39.231Z,99.90
2017-12-10T20:35:49.490Z,99.90
2017-12-10T20:38:59.703Z,99.90
2017-12-10T20:42:09.176Z,99.90
2017-12-10T20:45:19.662Z,99.90
2017-12-10T20:48:30.389Z,99.90
2017-12-10T20:51:40.834Z,99.90
2017-12-10T20:54:50.684Z,99.90
2017-12-10T20:58:01.226Z,99.90
2017-12-10T21:01:11.439Z,99.90
2017-12-10T21:04:22.064Z,99.90
2017-12-10T21:07:32.352Z,99.90
2017-12-10T21:10:42.430Z,99.90
2017-12-10T21:13:52.947Z,99.90
2017-12-10T21:17:02.958Z,99.90
2017-12-10T21:20:14.547Z,99.90
2017-12-10T21:23:24.649Z,99.90
2017-12-10T21:26:35.007Z,99.90
2017-12-10T21:29:44.491Z,99.90
2017-12-10T21:32:55.039Z,99.90
2017-12-10T21:36:05.383Z,99.90
2017-12-10T21:39:15.316Z,99.90
2017-12-10T21:42:25.010Z,99.90
2017-12-10T21:45:34.973Z,99.90
2017-12-10T21:48:44.634Z,99.90
2017-12-10T21:51:54.423Z,99.90
2017-12-10T21:55:04.090Z,99.90
2017-12-10T21:58:14.153Z,99.90
2017-12-10T22:01:24.823Z,99.90
2017-12-10T22:04:35.552Z,99.90
2017-12-10T22:07:45.286Z,99.90
2017-12-10T22:10:55.162Z,99.90
2017-12-10T22:14:05.049Z,99.90
2017-12-10T22:17:14.507Z,99.90
2017-12-10T22:20:24.772Z,99.90
2017-12-10T22:23:34.892Z,99.90
2017-12-10T22:26:45.125Z,99.90
2017-12-10T22:29:56.061Z,99.90
2017-12-10T22:33:06.789Z,99.90
2017-12-10T22:36:17.475Z,99.90
2017-12-10T22:39:27.600Z,99.90
2017-12-10T22:42:37.106Z,99.90
2017-12-10T22:45:47.493Z,99.90
2017-12-10T22:48:57.374Z,99.60
2017-12-10T22:52:08.006Z,99.50
2017-12-10T22:55:17.830Z,99.30
2017-12-10T22:58:28.066Z,99.30
2017-12-10T23:01:38.786Z,99.20
2017-12-10T23:04:48.735Z,99.10
2017-12-10T23:07:58.655Z,99.30
2017-12-10T23:11:08.474Z,99.60
2017-12-10T23:14:19.212Z,99.30
2017-12-10T23:17:29.022Z,99.30
2017-12-10T23:20:39.000Z,99.20
2017-12-10T23:23:49.702Z,98.50
2017-12-10T23:26:59.872Z,98.60
2017-12-10T23:30:10.585Z,98.40
2017-12-10T23:33:20.937Z,97.80
2017-12-10T23:36:31.595Z,97.70
2017-12-10T23:39:42.056Z,97.40
2017-12-10T23:42:52.035Z,97.40
2017-12-10T23:46:02.522Z,97.30
2017-12-10T23:49:12.933Z,97.30
2017-12-10T23:52:25.752Z,97.90
2017-12-10T23:55:35.583Z,97.90
2017-12-10T23:58:45.610Z,97.60
